createdAt,value
2024-04-17T00:00:55.950Z,484.00
2024-04-17T00:01:56.071Z,486.00
2024-04-17T00:02:55.871Z,484.00
2024-04-17T00:03:55.965Z,485.00
2024-04-17T00:04:55.868Z,485.00
2024-04-17T00:05:55.800Z,485.00
2024-04-17T00:06:55.791Z,484.00
2024-04-17T00:07:55.778Z,483.00
2024-04-17T00:08:55.722Z,484.00
2024-04-17T00:09:55.708Z,482.00
2024-04-17T00:10:55.774Z,483.00
2024-04-17T00:11:55.647Z,482.00
2024-04-17T00:12:55.615Z,484.00
2024-04-17T00:13:55.621Z,484.00
2024-04-17T00:14:55.567Z,481.00
2024-04-17T00:15:56.449Z,481.00
2024-04-17T00:16:55.757Z,480.00
2024-04-17T00:17:55.571Z,479.00
2024-04-17T00:18:55.465Z,478.00
2024-04-17T00:19:55.518Z,477.00
2024-04-17T00:20:55.432Z,475.00
2024-04-17T00:21:55.426Z,476.00
2024-04-17T00:22:55.435Z,476.00
2024-04-17T00:23:55.365Z,476.00
2024-04-17T00:24:55.350Z,479.00
2024-04-17T00:25:55.357Z,478.00
2024-04-17T00:26:55.320Z,479.00
2024-04-17T00:27:55.277Z,481.00
2024-04-17T00:28:55.323Z,480.00
2024-04-17T00:29:55.244Z,481.00
2024-04-17T00:30:55.229Z,482.00
2024-04-17T00:31:55.272Z,481.00
2024-04-17T00:32:55.248Z,480.00
2024-04-17T00:33:55.166Z,479.00
2024-04-17T00:34:55.216Z,477.00
2024-04-17T00:35:55.170Z,476.00
2024-04-17T00:36:55.174Z,477.00
2024-04-17T00:37:55.221Z,476.00
2024-04-17T00:38:55.203Z,476.00
2024-04-17T00:39:55.123Z,476.00
2024-04-17T00:40:55.270Z,478.00
2024-04-17T00:41:55.119Z,478.00
2024-04-17T00:42:55.115Z,478.00
2024-04-17T00:43:55.156Z,482.00
2024-04-17T00:44:55.097Z,483.00
2024-04-17T00:45:55.134Z,481.00
2024-04-17T00:46:55.279Z,483.00
2024-04-17T00:47:55.145Z,482.00
2024-04-17T00:48:55.101Z,483.00
2024-04-17T00:49:55.197Z,482.00
2024-04-17T00:50:55.080Z,479.00
2024-04-17T00:51:55.107Z,478.00
2024-04-17T00:52:55.160Z,478.00
2024-04-17T00:53:55.073Z,480.00
2024-04-17T00:54:55.041Z,480.00
2024-04-17T00:55:55.060Z,482.00
2024-04-17T00:56:54.989Z,484.00
2024-04-17T00:57:54.950Z,486.00
2024-04-17T00:58:55.003Z,486.00
2024-04-17T00:59:54.890Z,486.00
2024-04-17T01:00:54.896Z,487.00
2024-04-17T01:01:58.243Z,485.00
2024-04-17T01:02:55.893Z,483.00
2024-04-17T01:03:54.859Z,478.00
2024-04-17T01:04:54.861Z,475.00
2024-04-17T01:05:54.750Z,475.00
2024-04-17T01:06:54.764Z,476.00
2024-04-17T01:07:54.744Z,477.00
2024-04-17T01:08:54.672Z,477.00
2024-04-17T01:09:54.742Z,478.00
2024-04-17T01:10:54.710Z,477.00
2024-04-17T01:11:54.617Z,475.00
2024-04-17T01:12:54.577Z,476.00
2024-04-17T01:13:54.689Z,478.00
2024-04-17T01:14:54.540Z,477.00
2024-04-17T01:15:54.526Z,473.00
2024-04-17T01:16:54.614Z,473.00
2024-04-17T01:17:54.587Z,471.00
2024-04-17T01:18:54.450Z,472.00
2024-04-17T01:19:54.541Z,470.00
2024-04-17T01:20:54.394Z,469.00
2024-04-17T01:21:54.364Z,470.00
2024-04-17T01:22:54.428Z,472.00
2024-04-17T01:23:54.347Z,473.00
2024-04-17T01:24:54.273Z,472.00
2024-04-17T01:25:54.492Z,473.00
2024-04-17T01:26:54.237Z,473.00
2024-04-17T01:27:54.234Z,475.00
2024-04-17T01:28:54.286Z,475.00
2024-04-17T01:29:54.183Z,475.00
2024-04-17T01:30:54.147Z,477.00
2024-04-17T01:31:54.226Z,475.00
2024-04-17T01:32:54.256Z,476.00
2024-04-17T01:33:54.090Z,476.00
2024-04-17T01:34:55.051Z,477.00
2024-04-17T01:35:54.057Z,479.00
2024-04-17T01:36:54.038Z,481.00
2024-04-17T01:37:54.161Z,481.00
2024-04-17T01:38:54.031Z,481.00
2024-04-17T01:39:53.966Z,477.00
2024-04-17T01:40:53.974Z,477.00
2024-04-17T01:41:53.946Z,478.00
2024-04-17T01:42:53.902Z,478.00
2024-04-17T01:43:53.963Z,477.00
2024-04-17T01:44:53.853Z,474.00
2024-04-17T01:45:53.890Z,472.00
2024-04-17T01:46:53.940Z,471.00
2024-04-17T01:47:53.976Z,470.00
2024-04-17T01:48:53.790Z,468.00
2024-04-17T01:49:53.835Z,468.00
2024-04-17T01:50:53.787Z,468.00
2024-04-17T01:51:53.770Z,468.00
2024-04-17T01:52:53.766Z,469.00
2024-04-17T01:53:53.728Z,469.00
2024-04-17T01:54:53.710Z,471.00
2024-04-17T01:55:53.704Z,471.00
2024-04-17T01:56:53.664Z,468.00
2024-04-17T01:57:53.631Z,467.00
2024-04-17T01:58:53.725Z,470.00
2024-04-17T01:59:53.606Z,469.00
2024-04-17T02:00:53.605Z,470.00
2024-04-17T02:01:53.557Z,470.00
2024-04-17T02:02:53.534Z,469.00
2024-04-17T02:03:53.539Z,468.00
2024-04-17T02:04:53.501Z,467.00
2024-04-17T02:05:53.452Z,468.00
2024-04-17T02:06:53.415Z,468.00
2024-04-17T02:07:53.460Z,469.00
2024-04-17T02:08:53.363Z,467.00
2024-04-17T02:09:53.404Z,467.00
2024-04-17T02:10:53.414Z,467.00
2024-04-17T02:11:53.311Z,469.00
2024-04-17T02:12:53.300Z,467.00
2024-04-17T02:13:53.299Z,467.00
2024-04-17T02:14:53.227Z,471.00
2024-04-17T02:15:53.192Z,473.00
2024-04-17T02:16:53.331Z,473.00
2024-04-17T02:17:53.291Z,470.00
2024-04-17T02:18:53.132Z,470.00
2024-04-17T02:19:53.194Z,471.00
2024-04-17T02:20:53.113Z,470.00
2024-04-17T02:21:53.117Z,473.00
2024-04-17T02:22:53.131Z,472.00
2024-04-17T02:23:53.020Z,472.00
2024-04-17T02:24:52.987Z,471.00
2024-04-17T02:25:53.050Z,472.00
2024-04-17T02:26:52.951Z,470.00
2024-04-17T02:27:52.915Z,469.00
2024-04-17T02:28:53.087Z,471.00
2024-04-17T02:29:52.875Z,472.00
2024-04-17T02:30:52.846Z,471.00
2024-04-17T02:31:52.866Z,469.00
2024-04-17T02:32:52.828Z,470.00
2024-04-17T02:33:52.779Z,471.00
2024-04-17T02:34:52.894Z,470.00
2024-04-17T02:35:52.722Z,471.00
2024-04-17T02:36:52.695Z,467.00
2024-04-17T02:37:52.831Z,467.00
2024-04-17T02:38:52.631Z,468.00
2024-04-17T02:39:52.604Z,469.00
2024-04-17T02:40:52.662Z,469.00
2024-04-17T02:41:52.553Z,468.00
2024-04-17T02:42:52.536Z,467.00
2024-04-17T02:43:52.563Z,469.00
2024-04-17T02:44:52.455Z,470.00
2024-04-17T02:45:52.459Z,472.00
2024-04-17T02:46:52.492Z,472.00
2024-04-17T02:47:52.474Z,473.00
2024-04-17T02:48:52.393Z,473.00
2024-04-17T02:49:52.455Z,473.00
2024-04-17T02:50:52.391Z,472.00
2024-04-17T02:51:52.365Z,473.00
2024-04-17T02:52:52.485Z,474.00
2024-04-17T02:53:52.332Z,474.00
2024-04-17T02:54:52.313Z,472.00
2024-04-17T02:55:52.373Z,474.00
2024-04-17T02:56:52.298Z,472.00
2024-04-17T02:57:52.258Z,472.00
2024-04-17T02:58:52.397Z,474.00
2024-04-17T02:59:52.221Z,476.00
2024-04-17T03:00:52.212Z,479.00
2024-04-17T03:01:52.427Z,481.00
2024-04-17T03:02:52.247Z,478.00
2024-04-17T03:03:52.224Z,475.00
2024-04-17T03:04:52.216Z,473.00
2024-04-17T03:05:52.149Z,474.00
2024-04-17T03:06:52.139Z,477.00
2024-04-17T03:07:52.219Z,479.00
2024-04-17T03:08:52.098Z,478.00
2024-04-17T03:09:52.087Z,477.00
2024-04-17T03:10:52.156Z,479.00
2024-04-17T03:11:52.120Z,477.00
2024-04-17T03:12:52.061Z,477.00
2024-04-17T03:13:52.108Z,477.00
2024-04-17T03:14:52.033Z,478.00
2024-04-17T03:15:52.022Z,478.00
2024-04-17T03:16:52.102Z,477.00
2024-04-17T03:17:52.123Z,478.00
2024-04-17T03:18:52.004Z,473.00
2024-04-17T03:19:52.108Z,471.00
2024-04-17T03:20:51.986Z,470.00
2024-04-17T03:21:51.973Z,472.00
2024-04-17T03:22:52.037Z,471.00
2024-04-17T03:23:51.977Z,476.00
2024-04-17T03:24:51.982Z,473.00
2024-04-17T03:25:52.060Z,474.00
2024-04-17T03:26:51.990Z,473.00
2024-04-17T03:27:52.003Z,474.00
2024-04-17T03:28:52.048Z,472.00
2024-04-17T03:29:52.035Z,471.00
2024-04-17T03:30:52.064Z,472.00
2024-04-17T03:31:52.197Z,474.00
2024-04-17T03:32:52.172Z,476.00
2024-04-17T03:33:52.137Z,480.00
2024-04-17T03:34:52.173Z,483.00
2024-04-17T03:35:52.085Z,483.00
2024-04-17T03:36:52.065Z,482.00
2024-04-17T03:37:52.142Z,481.00
2024-04-17T03:38:52.057Z,478.00
2024-04-17T03:39:52.011Z,478.00
2024-04-17T03:40:52.092Z,478.00
2024-04-17T03:41:51.963Z,479.00
2024-04-17T03:42:51.972Z,478.00
2024-04-17T03:43:51.979Z,478.00
2024-04-17T03:44:51.908Z,475.00
2024-04-17T03:45:51.921Z,476.00
2024-04-17T03:46:52.008Z,477.00
2024-04-17T03:47:52.046Z,477.00
2024-04-17T03:48:52.045Z,476.00
2024-04-17T03:49:52.112Z,476.00
2024-04-17T03:50:52.120Z,476.00
2024-04-17T03:51:52.200Z,476.00
2024-04-17T03:52:52.339Z,477.00
2024-04-17T03:53:52.284Z,475.00
2024-04-17T03:54:52.313Z,475.00
2024-04-17T03:55:52.402Z,475.00
2024-04-17T03:56:52.410Z,477.00
2024-04-17T03:57:52.459Z,474.00
2024-04-17T03:58:52.538Z,475.00
2024-04-17T03:59:52.566Z,474.00
2024-04-17T04:00:52.598Z,475.00
2024-04-17T04:01:52.717Z,477.00
2024-04-17T04:02:52.740Z,475.00
2024-04-17T04:03:52.718Z,476.00
2024-04-17T04:04:52.777Z,474.00
2024-04-17T04:05:52.796Z,471.00
2024-04-17T04:06:52.826Z,472.00
2024-04-17T04:07:53.010Z,477.00
2024-04-17T04:08:52.914Z,476.00
2024-04-17T04:09:52.930Z,478.00
2024-04-17T04:10:52.982Z,477.00
2024-04-17T04:11:53.023Z,480.00
2024-04-17T04:12:53.024Z,477.00
2024-04-17T04:13:53.125Z,477.00
2024-04-17T04:14:53.099Z,477.00
2024-04-17T04:15:53.112Z,477.00
2024-04-17T04:16:53.429Z,479.00
2024-04-17T04:17:53.235Z,482.00
2024-04-17T04:18:53.210Z,484.00
2024-04-17T04:19:53.322Z,483.00
2024-04-17T04:20:53.278Z,485.00
2024-04-17T04:21:53.323Z,486.00
2024-04-17T04:22:53.380Z,487.00
2024-04-17T04:23:53.401Z,487.00
2024-04-17T04:24:53.424Z,487.00
2024-04-17T04:25:53.574Z,485.00
2024-04-17T04:26:53.590Z,485.00
2024-04-17T04:27:53.529Z,486.00
2024-04-17T04:28:53.706Z,487.00
2024-04-17T04:29:53.678Z,489.00
2024-04-17T04:30:53.694Z,489.00
2024-04-17T04:31:53.892Z,490.00
2024-04-17T04:32:53.858Z,490.00
2024-04-17T04:33:53.798Z,493.00
2024-04-17T04:34:54.008Z,494.00
2024-04-17T04:35:53.918Z,494.00
2024-04-17T04:36:53.962Z,494.00
2024-04-17T04:37:54.076Z,490.00
2024-04-17T04:38:54.068Z,489.00
2024-04-17T04:39:54.087Z,490.00
2024-04-17T04:40:54.206Z,491.00
2024-04-17T04:41:54.209Z,489.00
2024-04-17T04:42:54.236Z,488.00
2024-04-17T04:43:54.424Z,489.00
2024-04-17T04:44:54.386Z,490.00
2024-04-17T04:45:54.435Z,489.00
2024-04-17T04:47:01.823Z,484.00
2024-04-17T04:48:01.822Z,481.00
2024-04-17T04:49:01.691Z,482.00
2024-04-17T04:50:01.725Z,484.00
2024-04-17T04:51:01.677Z,483.00
2024-04-17T04:52:01.652Z,483.00
2024-04-17T04:53:01.742Z,485.00
2024-04-17T04:54:01.619Z,486.00
2024-04-17T04:55:01.610Z,487.00
2024-04-17T04:56:01.624Z,487.00
2024-04-17T04:57:01.608Z,487.00
2024-04-17T04:58:01.591Z,487.00
2024-04-17T04:59:01.646Z,485.00
2024-04-17T05:00:01.673Z,485.00
2024-04-17T05:01:02.662Z,486.00
2024-04-17T05:02:01.853Z,491.00
2024-04-17T05:03:01.856Z,489.00
2024-04-17T05:04:01.963Z,489.00
2024-04-17T05:05:01.986Z,486.00
2024-04-17T05:06:01.985Z,486.00
2024-04-17T05:07:02.059Z,484.00
2024-04-17T05:08:02.321Z,483.00
2024-04-17T05:09:02.141Z,483.00
2024-04-17T05:10:02.208Z,480.00
2024-04-17T05:11:02.329Z,477.00
2024-04-17T05:12:02.315Z,478.00
2024-04-17T05:13:02.379Z,478.00
2024-04-17T05:14:02.483Z,480.00
2024-04-17T05:15:02.457Z,482.00
2024-04-17T05:16:02.550Z,481.00
2024-04-17T05:17:02.722Z,481.00
2024-04-17T05:18:02.736Z,480.00
2024-04-17T05:19:02.623Z,481.00
2024-04-17T05:20:02.674Z,481.00
2024-04-17T05:21:02.581Z,479.00
2024-04-17T05:22:02.601Z,480.00
2024-04-17T05:23:02.577Z,477.00
2024-04-17T05:24:02.528Z,478.00
2024-04-17T05:25:02.549Z,477.00
2024-04-17T05:26:02.587Z,478.00
2024-04-17T05:27:02.586Z,479.00
2024-04-17T05:28:02.659Z,479.00
2024-04-17T05:29:02.742Z,480.00
2024-04-17T05:30:02.758Z,479.00
2024-04-17T05:31:02.801Z,478.00
2024-04-17T05:32:02.869Z,478.00
2024-04-17T05:33:03.468Z,478.00
2024-04-17T05:34:02.917Z,478.00
2024-04-17T05:35:02.971Z,477.00
2024-04-17T05:36:03.885Z,479.00
2024-04-17T05:37:02.972Z,479.00
2024-04-17T05:38:03.011Z,482.00
2024-04-17T05:39:03.006Z,484.00
2024-04-17T05:40:02.919Z,485.00
2024-04-17T05:41:02.958Z,491.00
2024-04-17T05:42:02.901Z,497.00
2024-04-17T05:43:02.885Z,502.00
2024-04-17T05:44:02.911Z,503.00
2024-04-17T05:45:02.914Z,503.00
2024-04-17T05:46:02.831Z,504.00
2024-04-17T05:47:03.077Z,504.00
2024-04-17T05:48:02.961Z,505.00
2024-04-17T05:49:02.831Z,505.00
2024-04-17T05:50:05.347Z,510.00
2024-04-17T05:51:02.707Z,516.00
2024-04-17T05:52:02.718Z,521.00
2024-04-17T05:53:03.035Z,530.00
2024-04-17T05:54:02.665Z,540.00
2024-04-17T05:55:03.183Z,551.00
2024-04-17T05:56:02.784Z,563.00
2024-04-17T05:57:02.771Z,578.00
2024-04-17T05:58:02.665Z,582.00
2024-04-17T05:59:02.745Z,589.00
2024-04-17T06:00:02.682Z,601.00
2024-04-17T06:01:02.942Z,606.00
2024-04-17T06:02:02.767Z,615.00
2024-04-17T06:03:03.051Z,627.00
2024-04-17T06:04:02.831Z,637.00
2024-04-17T06:05:02.965Z,649.00
2024-04-17T06:06:02.949Z,657.00
2024-04-17T06:07:02.936Z,662.00
2024-04-17T06:08:03.172Z,673.00
2024-04-17T06:09:03.008Z,681.00
2024-04-17T06:10:03.051Z,688.00
2024-04-17T06:11:03.226Z,693.00
2024-04-17T06:12:03.125Z,704.00
2024-04-17T06:13:03.105Z,712.00
2024-04-17T06:15:03.184Z,735.00
2024-04-17T06:16:03.316Z,742.00
2024-04-17T06:17:03.247Z,754.00
2024-04-17T06:18:03.312Z,762.00
2024-04-17T06:19:03.895Z,767.00
2024-04-17T06:20:03.284Z,769.00
2024-04-17T06:21:03.248Z,772.00
2024-04-17T06:22:03.311Z,785.00
2024-04-17T06:23:03.433Z,791.00
2024-04-17T06:24:03.873Z,796.00
2024-04-17T06:25:05.885Z,802.00
2024-04-17T06:26:04.415Z,813.00
2024-04-17T06:27:03.939Z,820.00
2024-04-17T06:28:03.303Z,828.00
2024-04-17T06:29:03.336Z,832.00
2024-04-17T06:30:03.216Z,833.00
2024-04-17T06:31:03.180Z,833.00
2024-04-17T06:32:03.307Z,833.00
2024-04-17T06:33:03.249Z,837.00
2024-04-17T06:34:03.091Z,838.00
2024-04-17T06:35:03.109Z,842.00
2024-04-17T06:36:03.036Z,846.00
2024-04-17T06:37:03.000Z,853.00
2024-04-17T06:38:03.181Z,857.00
2024-04-17T06:39:03.029Z,862.00
2024-04-17T06:40:02.925Z,869.00
2024-04-17T06:41:04.275Z,876.00
2024-04-17T06:42:03.565Z,885.00
2024-04-17T06:43:02.863Z,883.00
2024-04-17T06:44:02.838Z,887.00
2024-04-17T06:45:02.781Z,886.00
2024-04-17T06:46:02.763Z,872.00
2024-04-17T06:47:02.790Z,852.00
2024-04-17T06:48:03.178Z,830.00
2024-04-17T06:49:02.634Z,796.00
2024-04-17T06:50:02.797Z,781.00
2024-04-17T06:51:02.578Z,773.00
2024-04-17T06:52:02.567Z,769.00
2024-04-17T06:53:02.624Z,769.00
2024-04-17T06:54:02.543Z,764.00
2024-04-17T06:55:02.506Z,766.00
2024-04-17T06:56:02.588Z,763.00
2024-04-17T06:57:02.584Z,761.00
2024-04-17T06:58:02.414Z,756.00
2024-04-17T06:59:02.516Z,748.00
2024-04-17T07:00:02.410Z,743.00
2024-04-17T07:01:02.382Z,737.00
2024-04-17T07:02:02.399Z,729.00
2024-04-17T07:03:04.825Z,725.00
2024-04-17T07:04:02.281Z,721.00
2024-04-17T07:05:02.986Z,720.00
2024-04-17T07:06:02.230Z,715.00
2024-04-17T07:07:02.123Z,711.00
2024-04-17T07:08:02.203Z,706.00
2024-04-17T07:09:02.079Z,700.00
2024-04-17T07:10:02.054Z,700.00
2024-04-17T07:11:02.027Z,700.00
2024-04-17T07:12:02.123Z,698.00
2024-04-17T07:13:01.993Z,696.00
2024-04-17T07:14:02.001Z,697.00
2024-04-17T07:15:01.935Z,696.00
2024-04-17T07:16:01.857Z,691.00
2024-04-17T07:17:01.909Z,687.00
2024-04-17T07:18:01.966Z,685.00
2024-04-17T07:19:02.462Z,675.00
2024-04-17T07:20:01.973Z,667.00
2024-04-17T07:21:01.878Z,660.00
2024-04-17T07:22:01.833Z,649.00
2024-04-17T07:23:02.077Z,647.00
2024-04-17T07:24:01.776Z,643.00
2024-04-17T07:25:02.451Z,637.00
2024-04-17T07:26:01.871Z,633.00
2024-04-17T07:27:02.410Z,629.00
2024-04-17T07:28:01.654Z,625.00
2024-04-17T07:29:01.667Z,620.00
2024-04-17T07:30:01.637Z,618.00
2024-04-17T07:31:01.608Z,615.00
2024-04-17T07:32:01.657Z,610.00
2024-04-17T07:33:01.647Z,605.00
2024-04-17T07:34:01.630Z,598.00
2024-04-17T07:35:03.419Z,596.00
2024-04-17T07:36:01.691Z,590.00
2024-04-17T07:37:01.896Z,586.00
2024-04-17T07:38:01.733Z,583.00
2024-04-17T07:39:01.912Z,579.00
2024-04-17T07:40:01.697Z,573.00
2024-04-17T07:41:01.756Z,571.00
2024-04-17T07:42:01.606Z,569.00
2024-04-17T07:43:01.578Z,570.00
2024-04-17T07:44:01.625Z,571.00
2024-04-17T07:45:01.559Z,580.00
2024-04-17T07:46:01.496Z,586.00
2024-04-17T07:47:01.537Z,589.00
2024-04-17T07:48:03.401Z,596.00
2024-04-17T07:49:01.412Z,603.00
2024-04-17T07:50:01.453Z,609.00
2024-04-17T07:51:01.347Z,612.00
2024-04-17T07:52:01.341Z,618.00
2024-04-17T07:53:01.372Z,626.00
2024-04-17T07:54:01.260Z,634.00
2024-04-17T07:55:02.069Z,633.00
2024-04-17T07:56:01.332Z,637.00
2024-04-17T07:57:01.163Z,642.00
2024-04-17T07:58:01.468Z,641.00
2024-04-17T07:59:01.169Z,641.00
2024-04-17T08:00:01.056Z,642.00
2024-04-17T08:01:01.091Z,640.00
2024-04-17T08:02:01.367Z,641.00
2024-04-17T08:03:01.000Z,644.00
2024-04-17T08:04:00.944Z,644.00
2024-04-17T08:05:00.902Z,645.00
2024-04-17T08:06:00.914Z,647.00
2024-04-17T08:07:00.893Z,651.00
2024-04-17T08:08:00.993Z,654.00
2024-04-17T08:09:00.769Z,655.00
2024-04-17T08:10:00.767Z,655.00
2024-04-17T08:11:00.758Z,657.00
2024-04-17T08:12:00.727Z,660.00
2024-04-17T08:13:00.659Z,661.00
2024-04-17T08:14:00.735Z,663.00
2024-04-17T08:15:00.580Z,666.00
2024-04-17T08:16:00.652Z,667.00
2024-04-17T08:17:00.780Z,670.00
2024-04-17T08:18:00.675Z,673.00
2024-04-17T08:19:00.519Z,673.00
2024-04-17T08:20:00.624Z,671.00
2024-04-17T08:21:00.460Z,672.00
2024-04-17T08:22:00.440Z,673.00
2024-04-17T08:23:00.509Z,672.00
2024-04-17T08:24:00.308Z,672.00
2024-04-17T08:25:00.353Z,677.00
2024-04-17T08:26:00.429Z,678.00
2024-04-17T08:27:00.510Z,676.00
2024-04-17T08:28:00.687Z,681.00
2024-04-17T08:29:00.743Z,684.00
2024-04-17T08:30:00.456Z,685.00
2024-04-17T08:31:00.430Z,690.00
2024-04-17T08:32:00.538Z,698.00
2024-04-17T08:33:00.751Z,706.00
2024-04-17T08:34:00.761Z,698.00
2024-04-17T08:35:00.605Z,673.00
2024-04-17T08:36:00.552Z,654.00
2024-04-17T08:37:00.442Z,642.00
2024-04-17T08:38:00.562Z,633.00
2024-04-17T08:39:01.468Z,632.00
2024-04-17T08:40:01.432Z,631.00
2024-04-17T08:41:00.866Z,634.00
2024-04-17T08:42:00.628Z,632.00
2024-04-17T08:43:00.556Z,633.00
2024-04-17T08:44:00.650Z,640.00
2024-04-17T08:45:00.554Z,650.00
2024-04-17T08:46:00.518Z,653.00
2024-04-17T08:47:00.602Z,652.00
2024-04-17T08:48:00.734Z,657.00
2024-04-17T08:49:00.463Z,675.00
2024-04-17T08:50:00.576Z,652.00
2024-04-17T08:51:00.704Z,633.00
2024-04-17T08:52:00.530Z,623.00
2024-04-17T08:53:00.679Z,623.00
2024-04-17T08:54:00.406Z,621.00
2024-04-17T08:55:00.424Z,624.00
2024-04-17T08:56:00.732Z,626.00
2024-04-17T08:57:00.423Z,629.00
2024-04-17T08:58:00.541Z,632.00
2024-04-17T08:59:00.492Z,636.00
2024-04-17T09:00:00.335Z,639.00
2024-04-17T09:01:00.316Z,640.00
2024-04-17T09:02:00.386Z,641.00
2024-04-17T09:03:00.341Z,645.00
2024-04-17T09:04:00.207Z,643.00
2024-04-17T09:05:00.472Z,645.00
2024-04-17T09:06:00.967Z,649.00
2024-04-17T09:07:00.127Z,647.00
2024-04-17T09:08:00.202Z,649.00
2024-04-17T09:09:00.077Z,649.00
2024-04-17T09:10:00.147Z,652.00
2024-04-17T09:11:00.245Z,650.00
2024-04-17T09:12:00.137Z,647.00
2024-04-17T09:13:00.307Z,651.00
2024-04-17T09:14:00.301Z,651.00
2024-04-17T09:15:00.248Z,652.00
2024-04-17T09:16:00.298Z,655.00
2024-04-17T09:17:00.399Z,662.00
2024-04-17T09:18:00.369Z,663.00
2024-04-17T09:19:00.239Z,659.00
2024-04-17T09:20:00.430Z,658.00
2024-04-17T09:21:00.183Z,658.00
2024-04-17T09:22:00.957Z,658.00
2024-04-17T09:23:00.258Z,662.00
2024-04-17T09:24:00.123Z,662.00
2024-04-17T09:25:00.063Z,664.00
2024-04-17T09:26:00.267Z,665.00
2024-04-17T09:27:00.111Z,668.00
2024-04-17T09:28:00.014Z,675.00
2024-04-17T09:29:00.108Z,681.00
2024-04-17T09:29:59.918Z,683.00
2024-04-17T09:30:59.937Z,683.00
2024-04-17T09:31:59.923Z,689.00
2024-04-17T09:33:00.206Z,693.00
2024-04-17T09:33:59.859Z,699.00
2024-04-17T09:34:59.856Z,705.00
2024-04-17T09:36:00.806Z,712.00
2024-04-17T09:37:02.523Z,720.00
2024-04-17T09:37:59.769Z,720.00
2024-04-17T09:39:00.493Z,723.00
2024-04-17T09:39:59.624Z,724.00
2024-04-17T09:40:59.631Z,722.00
2024-04-17T09:41:59.557Z,718.00
2024-04-17T09:43:06.166Z,693.00
2024-04-17T09:44:00.522Z,672.00
2024-04-17T09:44:59.437Z,652.00
2024-04-17T09:45:59.503Z,644.00
2024-04-17T09:46:59.824Z,639.00
2024-04-17T09:47:59.566Z,625.00
2024-04-17T09:48:59.527Z,614.00
2024-04-17T09:49:59.447Z,608.00
2024-04-17T09:50:59.341Z,608.00
2024-04-17T09:51:59.328Z,603.00
2024-04-17T09:52:59.394Z,601.00
2024-04-17T09:53:59.306Z,592.00
2024-04-17T09:54:59.355Z,587.00
2024-04-17T09:55:59.360Z,593.00
2024-04-17T09:56:59.301Z,586.00
2024-04-17T09:57:59.269Z,581.00
2024-04-17T09:59:06.407Z,580.00
2024-04-17T10:00:00.283Z,584.00
2024-04-17T10:00:59.221Z,583.00
2024-04-17T10:01:59.318Z,581.00
2024-04-17T10:02:59.235Z,582.00
2024-04-17T10:03:59.213Z,581.00
2024-04-17T10:04:59.175Z,577.00
2024-04-17T10:05:59.082Z,574.00
2024-04-17T10:06:59.055Z,567.00
2024-04-17T10:07:59.134Z,564.00
2024-04-17T10:08:59.045Z,559.00
2024-04-17T10:09:59.008Z,552.00
2024-04-17T10:10:59.056Z,542.00
2024-04-17T10:11:59.041Z,543.00
2024-04-17T10:12:58.997Z,544.00
2024-04-17T10:13:59.016Z,540.00
2024-04-17T10:14:58.983Z,536.00
2024-04-17T10:15:58.951Z,536.00
2024-04-17T10:16:59.062Z,534.00
2024-04-17T10:17:59.108Z,531.00
2024-04-17T10:18:59.118Z,520.00
2024-04-17T10:19:59.178Z,517.00
2024-04-17T10:20:59.227Z,509.00
2024-04-17T10:21:59.246Z,508.00
2024-04-17T10:22:59.339Z,506.00
2024-04-17T10:23:59.507Z,505.00
2024-04-17T10:24:59.374Z,506.00
2024-04-17T10:25:59.431Z,498.00
2024-04-17T10:26:59.362Z,497.00
2024-04-17T10:27:59.379Z,498.00
2024-04-17T10:28:59.434Z,497.00
2024-04-17T10:29:59.398Z,494.00
2024-04-17T10:30:59.426Z,494.00
2024-04-17T10:31:59.632Z,490.00
2024-04-17T10:32:59.630Z,488.00
2024-04-17T10:33:59.533Z,486.00
2024-04-17T10:34:59.693Z,483.00
2024-04-17T10:35:59.647Z,479.00
2024-04-17T10:36:59.778Z,481.00
2024-04-17T10:38:02.150Z,479.00
2024-04-17T10:38:59.864Z,479.00
2024-04-17T10:39:59.828Z,476.00
2024-04-17T10:40:59.943Z,474.00
2024-04-17T10:41:59.880Z,480.00
2024-04-17T10:42:59.892Z,476.00
2024-04-17T10:44:01.033Z,473.00
2024-04-17T10:44:59.930Z,473.00
2024-04-17T10:45:59.966Z,471.00
2024-04-17T10:47:00.048Z,473.00
2024-04-17T10:48:00.060Z,476.00
2024-04-17T10:49:00.414Z,480.00
2024-04-17T10:50:00.787Z,478.00
2024-04-17T10:51:00.046Z,480.00
2024-04-17T10:52:01.002Z,479.00
2024-04-17T10:53:00.194Z,471.00
2024-04-17T10:54:00.157Z,472.00
2024-04-17T10:55:00.210Z,474.00
2024-04-17T10:56:00.321Z,475.00
2024-04-17T10:57:00.194Z,475.00
2024-04-17T10:58:00.220Z,476.00
2024-04-17T10:59:00.293Z,477.00
2024-04-17T11:00:00.415Z,476.00
2024-04-17T11:01:00.359Z,477.00
2024-04-17T11:02:00.443Z,477.00
2024-04-17T11:03:00.410Z,486.00
2024-04-17T11:04:00.523Z,485.00
2024-04-17T11:05:00.440Z,478.00
2024-04-17T11:06:02.750Z,479.00
2024-04-17T11:07:00.450Z,481.00
2024-04-17T11:08:00.561Z,482.00
2024-04-17T11:09:05.185Z,482.00
2024-04-17T11:10:01.532Z,481.00
2024-04-17T11:11:00.604Z,482.00
2024-04-17T11:12:00.549Z,479.00
2024-04-17T11:13:00.463Z,478.00
2024-04-17T11:14:00.660Z,478.00
2024-04-17T11:15:00.670Z,479.00
2024-04-17T11:16:00.548Z,476.00
2024-04-17T11:17:00.689Z,480.00
2024-04-17T11:18:00.633Z,478.00
2024-04-17T11:19:00.701Z,484.00
2024-04-17T11:20:00.736Z,481.00
2024-04-17T11:21:00.651Z,484.00
2024-04-17T11:22:00.624Z,486.00
2024-04-17T11:23:00.669Z,483.00
2024-04-17T11:24:00.689Z,482.00
2024-04-17T11:25:00.882Z,481.00
2024-04-17T11:26:00.865Z,479.00
2024-04-17T11:27:00.916Z,480.00
2024-04-17T11:28:00.762Z,483.00
2024-04-17T11:29:01.778Z,484.00
2024-04-17T11:30:01.048Z,485.00
2024-04-17T11:31:00.970Z,485.00
2024-04-17T11:32:01.599Z,486.00
2024-04-17T11:33:01.071Z,487.00
2024-04-17T11:34:01.075Z,487.00
2024-04-17T11:35:01.151Z,487.00
2024-04-17T11:36:02.048Z,486.00
2024-04-17T11:37:01.077Z,486.00
2024-04-17T11:38:01.169Z,487.00
2024-04-17T11:39:01.093Z,490.00
2024-04-17T11:40:01.141Z,492.00
2024-04-17T11:41:01.089Z,494.00
2024-04-17T11:42:01.054Z,493.00
2024-04-17T11:43:01.048Z,491.00
2024-04-17T11:44:01.154Z,492.00
2024-04-17T11:45:01.039Z,492.00
2024-04-17T11:46:01.037Z,494.00
2024-04-17T11:47:01.174Z,493.00
2024-04-17T11:48:01.226Z,494.00
2024-04-17T11:49:01.562Z,496.00
2024-04-17T11:50:01.290Z,497.00
2024-04-17T11:51:01.299Z,496.00
2024-04-17T11:52:01.298Z,495.00
2024-04-17T11:53:01.493Z,494.00
2024-04-17T11:54:01.436Z,492.00
2024-04-17T11:55:01.443Z,492.00
2024-04-17T11:56:01.496Z,494.00
2024-04-17T11:57:01.416Z,494.00
2024-04-17T11:58:01.427Z,492.00
2024-04-17T11:59:01.545Z,489.00
2024-04-17T12:00:01.447Z,486.00
2024-04-17T12:01:01.522Z,485.00
2024-04-17T12:02:01.494Z,488.00
2024-04-17T12:03:01.482Z,483.00
2024-04-17T12:04:01.521Z,481.00
2024-04-17T12:05:01.560Z,480.00
2024-04-17T12:06:01.481Z,480.00
2024-04-17T12:07:01.629Z,483.00
2024-04-17T12:08:01.589Z,484.00
2024-04-17T12:09:01.494Z,484.00
2024-04-17T12:10:01.478Z,486.00
2024-04-17T12:11:01.633Z,487.00
2024-04-17T12:12:01.508Z,486.00
2024-04-17T12:13:01.465Z,485.00
2024-04-17T12:14:01.571Z,489.00
2024-04-17T12:15:01.696Z,491.00
2024-04-17T12:16:01.520Z,491.00
2024-04-17T12:17:01.488Z,494.00
2024-04-17T12:18:01.572Z,492.00
2024-04-17T12:19:01.542Z,495.00
2024-04-17T12:20:01.629Z,496.00
2024-04-17T12:21:01.408Z,495.00
2024-04-17T12:22:01.409Z,496.00
2024-04-17T12:23:01.566Z,500.00
2024-04-17T12:24:02.099Z,499.00
2024-04-17T12:25:01.399Z,496.00
2024-04-17T12:26:01.968Z,491.00
2024-04-17T12:27:01.452Z,489.00
2024-04-17T12:28:01.460Z,484.00
2024-04-17T12:29:01.510Z,484.00
2024-04-17T12:30:01.492Z,484.00